Anchorage, AK (99501)

5:05 PM AKDT on July 24, 2016 (GMT -0800)
Merrill | | Change Station

Elev 135 ft 61.22 °N, 149.85 °W | Updated 5 minutes ago

Overcast
Overcast
60 °F
Feels Like 60 °F
N
5
Wind Variable Wind from NNW

Today
High -- | Low -- °F
--% Chance of Precip.
Yesterday
High -- | Low -- °F
Precip. -- in
Pressure 29.62 in
Visibility 10.0 miles
Clouds Mostly Cloudy 1400 ft
Overcast 8500 ft
Dew Point 55 °F
Humidity 83%
Rainfall 0.31 in
Snow Depth Not available.
5:13 AM 10:56 PM
Waning Gibbous, 71% visible
SPECI PAMR 250100Z 34004KT 10SM BKN014 OVC085 16/13 A2962 RMK AO2 T01560128
Pressure 29.62 in
Visibility 10.0 miles
Clouds Mostly Cloudy 1400 ft
Overcast 8500 ft
Dew Point 55 °F
Humidity 83%
Rainfall 0.31 in
Snow Depth Not available.
5:13 AM 10:56 PM
Waning Gibbous, 71% visible
SPECI PAMR 250100Z 34004KT 10SM BKN014 OVC085 16/13 A2962 RMK AO2 T01560128

10-Day Weather Forecast

Almanac

Astronomy

Jul. 24, 2016 Rise Set
Actual Time
Civil Twilight
Nautical Twilight
Astronomical Twilight
Moon
Length of Visible Light
Length of Day
Tomorrow will be .
, % of the Moon is Illuminated

Today's Extremes

State Highs State Lows

Community

WunderPhotos

Upload Photos

1,927,224 photos uploaded!

WunderBlog® & News

Nearby

Air Quality

  Air Quality AQ Index Pollutant
Not available.

Snow Depth

Station Depth Elevation

Earthquake Activity

City Distance Mag. Time & Date
Minimum magnitude displayed is 2.5.

Coastal Water Temperatures

Place Temperature

Stations

Nearby Weather Stations

Station Location Temp. Windchill Dew Point Humidity Wind Precip. Elev Updated Type
                   

Watches & Warnings

There are currently no watches in effect.